sensor_id;sensor_type;location;lat;lon;timestamp;P1;durP1;ratioP1;P2;durP2;ratioP2
75542;SDS011;64129;53.508;10.476;2023-05-10T00:00:11;3.67;;;2.90;;
75542;SDS011;64129;53.508;10.476;2023-05-10T00:02:38;4.00;;;2.90;;
75542;SDS011;64129;53.508;10.476;2023-05-10T00:05:05;4.07;;;3.25;;
75542;SDS011;64129;53.508;10.476;2023-05-10T00:07:32;4.15;;;3.25;;
75542;SDS011;64129;53.508;10.476;2023-05-10T00:09:59;5.20;;;3.10;;
75542;SDS011;64129;53.508;10.476;2023-05-10T00:12:26;3.92;;;3.33;;
75542;SDS011;64129;53.508;10.476;2023-05-10T00:14:52;7.13;;;3.47;;
75542;SDS011;64129;53.508;10.476;2023-05-10T00:17:19;5.47;;;3.30;;
75542;SDS011;64129;53.508;10.476;2023-05-10T00:19:45;4.22;;;3.05;;
75542;SDS011;64129;53.508;10.476;2023-05-10T00:22:12;3.67;;;3.28;;
75542;SDS011;64129;53.508;10.476;2023-05-10T00:24:38;4.18;;;3.10;;
75542;SDS011;64129;53.508;10.476;2023-05-10T00:27:05;4.97;;;3.45;;
75542;SDS011;64129;53.508;10.476;2023-05-10T00:29:31;4.78;;;3.05;;
75542;SDS011;64129;53.508;10.476;2023-05-10T00:31:59;5.10;;;3.03;;
75542;SDS011;64129;53.508;10.476;2023-05-10T00:34:25;3.88;;;3.22;;
75542;SDS011;64129;53.508;10.476;2023-05-10T00:36:52;3.58;;;3.13;;
75542;SDS011;64129;53.508;10.476;2023-05-10T00:39:18;3.78;;;3.40;;
75542;SDS011;64129;53.508;10.476;2023-05-10T00:41:45;4.07;;;3.20;;
75542;SDS011;64129;53.508;10.476;2023-05-10T00:44:12;6.82;;;3.55;;
75542;SDS011;64129;53.508;10.476;2023-05-10T00:46:38;4.03;;;3.30;;
75542;SDS011;64129;53.508;10.476;2023-05-10T00:49:05;4.40;;;3.05;;
75542;SDS011;64129;53.508;10.476;2023-05-10T00:51:32;5.07;;;3.33;;
75542;SDS011;64129;53.508;10.476;2023-05-10T00:53:59;3.88;;;3.22;;
75542;SDS011;64129;53.508;10.476;2023-05-10T00:56:25;4.85;;;2.60;;
75542;SDS011;64129;53.508;10.476;2023-05-10T00:58:53;4.70;;;3.35;;
75542;SDS011;64129;53.508;10.476;2023-05-10T01:01:19;4.90;;;4.40;;
75542;SDS011;64129;53.508;10.476;2023-05-10T01:03:46;3.47;;;3.17;;
75542;SDS011;64129;53.508;10.476;2023-05-10T01:06:14;3.95;;;2.70;;
75542;SDS011;64129;53.508;10.476;2023-05-10T01:08:40;5.30;;;3.40;;
75542;SDS011;64129;53.508;10.476;2023-05-10T01:11:07;4.18;;;3.33;;
75542;SDS011;64129;53.508;10.476;2023-05-10T01:16:05;6.65;;;3.30;;
75542;SDS011;64129;53.508;10.476;2023-05-10T01:18:33;5.10;;;3.55;;
75542;SDS011;64129;53.508;10.476;2023-05-10T01:23:52;4.68;;;3.42;;
75542;SDS011;64129;53.508;10.476;2023-05-10T01:26:56;4.20;;;3.50;;
75542;SDS011;64129;53.508;10.476;2023-05-10T01:35:36;5.35;;;3.45;;
75542;SDS011;64129;53.508;10.476;2023-05-10T01:38:13;5.53;;;3.20;;
75542;SDS011;64129;53.508;10.476;2023-05-10T01:40:44;4.10;;;2.97;;
75542;SDS011;64129;53.508;10.476;2023-05-10T01:43:36;4.38;;;3.90;;
75542;SDS011;64129;53.508;10.476;2023-05-10T01:46:16;5.22;;;3.50;;
75542;SDS011;64129;53.508;10.476;2023-05-10T01:48:51;7.50;;;3.20;;
75542;SDS011;64129;53.508;10.476;2023-05-10T01:51:25;5.45;;;3.38;;
75542;SDS011;64129;53.508;10.476;2023-05-10T01:53:59;5.43;;;3.28;;
75542;SDS011;64129;53.508;10.476;2023-05-10T01:56:29;8.18;;;3.88;;
75542;SDS011;64129;53.508;10.476;2023-05-10T01:58:58;6.65;;;3.58;;
75542;SDS011;64129;53.508;10.476;2023-05-10T02:03:53;3.50;;;3.20;;
75542;SDS011;64129;53.508;10.476;2023-05-10T02:06:22;6.75;;;3.70;;
75542;SDS011;64129;53.508;10.476;2023-05-10T02:08:51;4.30;;;3.90;;
75542;SDS011;64129;53.508;10.476;2023-05-10T02:11:19;5.40;;;3.38;;
75542;SDS011;64129;53.508;10.476;2023-05-10T02:13:47;4.22;;;3.47;;
75542;SDS011;64129;53.508;10.476;2023-05-10T02:16:16;3.45;;;3.03;;
75542;SDS011;64129;53.508;10.476;2023-05-10T02:18:48;4.28;;;3.58;;
75542;SDS011;64129;53.508;10.476;2023-05-10T02:21:19;6.80;;;3.65;;
75542;SDS011;64129;53.508;10.476;2023-05-10T02:23:48;4.35;;;3.83;;
75542;SDS011;64129;53.508;10.476;2023-05-10T02:26:16;7.57;;;4.45;;
75542;SDS011;64129;53.508;10.476;2023-05-10T02:28:44;7.38;;;3.95;;
75542;SDS011;64129;53.508;10.476;2023-05-10T02:31:11;5.13;;;3.65;;
75542;SDS011;64129;53.508;10.476;2023-05-10T02:33:40;3.75;;;3.28;;
75542;SDS011;64129;53.508;10.476;2023-05-10T02:36:07;5.20;;;3.60;;
75542;SDS011;64129;53.508;10.476;2023-05-10T02:38:35;5.78;;;3.83;;
75542;SDS011;64129;53.508;10.476;2023-05-10T02:41:02;6.20;;;3.70;;
75542;SDS011;64129;53.508;10.476;2023-05-10T02:43:32;5.10;;;3.92;;
75542;SDS011;64129;53.508;10.476;2023-05-10T02:45:59;4.22;;;3.72;;
75542;SDS011;64129;53.508;10.476;2023-05-10T02:48:26;5.00;;;3.85;;
75542;SDS011;64129;53.508;10.476;2023-05-10T02:50:54;5.70;;;3.67;;
75542;SDS011;64129;53.508;10.476;2023-05-10T02:53:35;6.22;;;3.70;;
75542;SDS011;64129;53.508;10.476;2023-05-10T02:56:05;4.20;;;3.67;;
75542;SDS011;64129;53.508;10.476;2023-05-10T02:58:38;4.78;;;3.63;;
75542;SDS011;64129;53.508;10.476;2023-05-10T03:01:04;4.50;;;3.88;;
75542;SDS011;64129;53.508;10.476;2023-05-10T03:03:33;6.00;;;4.13;;
75542;SDS011;64129;53.508;10.476;2023-05-10T03:05:59;4.75;;;4.05;;
75542;SDS011;64129;53.508;10.476;2023-05-10T03:08:26;5.43;;;4.00;;
75542;SDS011;64129;53.508;10.476;2023-05-10T03:11:16;4.28;;;3.80;;
75542;SDS011;64129;53.508;10.476;2023-05-10T03:14:09;6.15;;;3.88;;
75542;SDS011;64129;53.508;10.476;2023-05-10T03:16:52;5.32;;;4.35;;
75542;SDS011;64129;53.508;10.476;2023-05-10T03:22:10;3.90;;;3.42;;
75542;SDS011;64129;53.508;10.476;2023-05-10T03:24:37;5.35;;;3.75;;
75542;SDS011;64129;53.508;10.476;2023-05-10T03:27:07;4.25;;;3.75;;
75542;SDS011;64129;53.508;10.476;2023-05-10T03:29:34;5.88;;;3.88;;
75542;SDS011;64129;53.508;10.476;2023-05-10T03:32:03;5.45;;;4.05;;
75542;SDS011;64129;53.508;10.476;2023-05-10T03:34:30;4.22;;;3.88;;
75542;SDS011;64129;53.508;10.476;2023-05-10T03:36:57;6.55;;;3.90;;
75542;SDS011;64129;53.508;10.476;2023-05-10T03:39:26;4.78;;;4.38;;
75542;SDS011;64129;53.508;10.476;2023-05-10T03:41:56;4.65;;;4.20;;
75542;SDS011;64129;53.508;10.476;2023-05-10T03:44:22;4.60;;;4.00;;
75542;SDS011;64129;53.508;10.476;2023-05-10T03:46:49;5.18;;;3.50;;
75542;SDS011;64129;53.508;10.476;2023-05-10T03:49:16;4.45;;;4.07;;
75542;SDS011;64129;53.508;10.476;2023-05-10T03:51:42;4.47;;;3.50;;
75542;SDS011;64129;53.508;10.476;2023-05-10T03:54:09;7.72;;;3.85;;
75542;SDS011;64129;53.508;10.476;2023-05-10T03:56:36;4.05;;;3.40;;
75542;SDS011;64129;53.508;10.476;2023-05-10T03:59:02;4.18;;;3.85;;
75542;SDS011;64129;53.508;10.476;2023-05-10T04:01:33;4.53;;;4.13;;
75542;SDS011;64129;53.508;10.476;2023-05-10T04:04:01;5.82;;;4.20;;
75542;SDS011;64129;53.508;10.476;2023-05-10T04:06:30;5.00;;;4.20;;
75542;SDS011;64129;53.508;10.476;2023-05-10T04:08:57;4.43;;;4.00;;
75542;SDS011;64129;53.508;10.476;2023-05-10T04:11:26;4.30;;;3.70;;
75542;SDS011;64129;53.508;10.476;2023-05-10T04:13:52;4.72;;;4.10;;
75542;SDS011;64129;53.508;10.476;2023-05-10T04:16:19;4.72;;;4.15;;
75542;SDS011;64129;53.508;10.476;2023-05-10T04:18:45;6.05;;;4.25;;
75542;SDS011;64129;53.508;10.476;2023-05-10T04:21:12;6.28;;;3.97;;
75542;SDS011;64129;53.508;10.476;2023-05-10T04:23:39;5.35;;;4.00;;
75542;SDS011;64129;53.508;10.476;2023-05-10T04:26:06;5.90;;;4.07;;
75542;SDS011;64129;53.508;10.476;2023-05-10T04:28:33;5.55;;;4.60;;
75542;SDS011;64129;53.508;10.476;2023-05-10T04:31:00;6.13;;;4.15;;
75542;SDS011;64129;53.508;10.476;2023-05-10T04:33:31;5.63;;;4.40;;
75542;SDS011;64129;53.508;10.476;2023-05-10T04:35:57;5.25;;;4.50;;
75542;SDS011;64129;53.508;10.476;2023-05-10T04:38:24;5.15;;;3.90;;
75542;SDS011;64129;53.508;10.476;2023-05-10T04:40:50;5.80;;;4.60;;
75542;SDS011;64129;53.508;10.476;2023-05-10T04:43:17;5.70;;;4.70;;
75542;SDS011;64129;53.508;10.476;2023-05-10T04:45:43;6.20;;;4.35;;
75542;SDS011;64129;53.508;10.476;2023-05-10T04:48:10;4.95;;;4.45;;
75542;SDS011;64129;53.508;10.476;2023-05-10T04:50:37;5.30;;;4.60;;
75542;SDS011;64129;53.508;10.476;2023-05-10T04:53:04;5.10;;;4.60;;
75542;SDS011;64129;53.508;10.476;2023-05-10T04:55:30;4.90;;;4.40;;
75542;SDS011;64129;53.508;10.476;2023-05-10T04:57:57;5.07;;;4.47;;
75542;SDS011;64129;53.508;10.476;2023-05-10T05:00:25;7.30;;;4.85;;
75542;SDS011;64129;53.508;10.476;2023-05-10T05:02:51;6.03;;;4.68;;
75542;SDS011;64129;53.508;10.476;2023-05-10T05:05:18;4.57;;;4.18;;
75542;SDS011;64129;53.508;10.476;2023-05-10T05:07:44;6.18;;;4.68;;
75542;SDS011;64129;53.508;10.476;2023-05-10T05:10:11;5.07;;;4.53;;
75542;SDS011;64129;53.508;10.476;2023-05-10T05:12:37;7.45;;;4.70;;
75542;SDS011;64129;53.508;10.476;2023-05-10T05:15:04;4.82;;;4.43;;
75542;SDS011;64129;53.508;10.476;2023-05-10T05:17:31;5.15;;;4.70;;
75542;SDS011;64129;53.508;10.476;2023-05-10T05:19:58;4.95;;;4.30;;
75542;SDS011;64129;53.508;10.476;2023-05-10T05:22:25;5.20;;;4.53;;
75542;SDS011;64129;53.508;10.476;2023-05-10T05:24:54;4.95;;;3.90;;
75542;SDS011;64129;53.508;10.476;2023-05-10T05:27:21;5.00;;;4.50;;
75542;SDS011;64129;53.508;10.476;2023-05-10T05:29:50;5.82;;;5.25;;
75542;SDS011;64129;53.508;10.476;2023-05-10T05:32:18;4.95;;;4.35;;
75542;SDS011;64129;53.508;10.476;2023-05-10T05:34:45;3.88;;;3.53;;
75542;SDS011;64129;53.508;10.476;2023-05-10T05:37:12;5.10;;;4.60;;
75542;SDS011;64129;53.508;10.476;2023-05-10T05:39:42;6.20;;;4.47;;
75542;SDS011;64129;53.508;10.476;2023-05-10T05:42:10;4.90;;;4.25;;
75542;SDS011;64129;53.508;10.476;2023-05-10T05:44:36;4.93;;;4.13;;
75542;SDS011;64129;53.508;10.476;2023-05-10T05:47:03;4.93;;;4.35;;
75542;SDS011;64129;53.508;10.476;2023-05-10T05:49:30;5.22;;;3.97;;
75542;SDS011;64129;53.508;10.476;2023-05-10T05:52:00;5.47;;;4.55;;
75542;SDS011;64129;53.508;10.476;2023-05-10T05:54:28;4.90;;;4.40;;
75542;SDS011;64129;53.508;10.476;2023-05-10T05:56:56;4.88;;;4.43;;
75542;SDS011;64129;53.508;10.476;2023-05-10T05:59:25;5.45;;;4.50;;
75542;SDS011;64129;53.508;10.476;2023-05-10T06:01:51;5.70;;;4.50;;
75542;SDS011;64129;53.508;10.476;2023-05-10T06:04:19;7.05;;;4.88;;
75542;SDS011;64129;53.508;10.476;2023-05-10T06:06:45;5.20;;;4.70;;
75542;SDS011;64129;53.508;10.476;2023-05-10T06:09:12;5.07;;;4.10;;
75542;SDS011;64129;53.508;10.476;2023-05-10T06:11:38;5.05;;;4.55;;
75542;SDS011;64129;53.508;10.476;2023-05-10T06:14:05;5.93;;;4.80;;
75542;SDS011;64129;53.508;10.476;2023-05-10T06:16:33;5.68;;;4.38;;
75542;SDS011;64129;53.508;10.476;2023-05-10T06:19:01;6.80;;;4.55;;
75542;SDS011;64129;53.508;10.476;2023-05-10T06:21:28;4.90;;;4.40;;
75542;SDS011;64129;53.508;10.476;2023-05-10T06:23:55;5.35;;;4.55;;
75542;SDS011;64129;53.508;10.476;2023-05-10T06:26:21;5.28;;;4.75;;
75542;SDS011;64129;53.508;10.476;2023-05-10T06:28:48;6.00;;;4.45;;
75542;SDS011;64129;53.508;10.476;2023-05-10T06:31:14;4.78;;;4.28;;
75542;SDS011;64129;53.508;10.476;2023-05-10T06:33:42;4.45;;;4.05;;
75542;SDS011;64129;53.508;10.476;2023-05-10T06:36:08;6.10;;;3.85;;
75542;SDS011;64129;53.508;10.476;2023-05-10T06:38:35;4.80;;;4.20;;
75542;SDS011;64129;53.508;10.476;2023-05-10T06:41:01;4.35;;;3.58;;
75542;SDS011;64129;53.508;10.476;2023-05-10T06:43:28;4.65;;;3.90;;
75542;SDS011;64129;53.508;10.476;2023-05-10T06:45:55;4.40;;;3.17;;
75542;SDS011;64129;53.508;10.476;2023-05-10T06:48:22;4.18;;;3.78;;
75542;SDS011;64129;53.508;10.476;2023-05-10T06:50:48;4.20;;;3.75;;
75542;SDS011;64129;53.508;10.476;2023-05-10T06:53:15;6.97;;;4.28;;
75542;SDS011;64129;53.508;10.476;2023-05-10T06:55:41;5.22;;;4.05;;
75542;SDS011;64129;53.508;10.476;2023-05-10T06:58:08;7.03;;;5.05;;
75542;SDS011;64129;53.508;10.476;2023-05-10T07:00:34;4.75;;;4.10;;
75542;SDS011;64129;53.508;10.476;2023-05-10T07:03:03;4.53;;;4.13;;
75542;SDS011;64129;53.508;10.476;2023-05-10T07:05:29;4.80;;;3.70;;
75542;SDS011;64129;53.508;10.476;2023-05-10T07:07:56;4.18;;;3.50;;
75542;SDS011;64129;53.508;10.476;2023-05-10T07:10:22;4.78;;;4.28;;
75542;SDS011;64129;53.508;10.476;2023-05-10T07:12:49;4.47;;;4.07;;
75542;SDS011;64129;53.508;10.476;2023-05-10T07:15:16;5.18;;;4.40;;
75542;SDS011;64129;53.508;10.476;2023-05-10T07:17:43;4.90;;;4.05;;
75542;SDS011;64129;53.508;10.476;2023-05-10T07:20:11;4.82;;;4.20;;
75542;SDS011;64129;53.508;10.476;2023-05-10T07:22:38;5.10;;;4.60;;
75542;SDS011;64129;53.508;10.476;2023-05-10T07:25:04;5.45;;;4.32;;
75542;SDS011;64129;53.508;10.476;2023-05-10T07:27:31;8.52;;;4.05;;
75542;SDS011;64129;53.508;10.476;2023-05-10T07:29:58;4.97;;;4.57;;
75542;SDS011;64129;53.508;10.476;2023-05-10T07:32:25;5.47;;;4.10;;
75542;SDS011;64129;53.508;10.476;2023-05-10T07:34:52;5.38;;;4.05;;
75542;SDS011;64129;53.508;10.476;2023-05-10T07:37:18;6.35;;;4.70;;
75542;SDS011;64129;53.508;10.476;2023-05-10T07:39:45;4.60;;;4.20;;
75542;SDS011;64129;53.508;10.476;2023-05-10T07:42:11;6.60;;;4.05;;
75542;SDS011;64129;53.508;10.476;2023-05-10T07:44:38;5.30;;;4.10;;
75542;SDS011;64129;53.508;10.476;2023-05-10T07:47:04;4.57;;;4.18;;
75542;SDS011;64129;53.508;10.476;2023-05-10T07:49:31;7.03;;;4.55;;
75542;SDS011;64129;53.508;10.476;2023-05-10T07:51:57;4.30;;;3.90;;
75542;SDS011;64129;53.508;10.476;2023-05-10T07:54:24;4.90;;;4.38;;
75542;SDS011;64129;53.508;10.476;2023-05-10T07:56:50;4.72;;;4.30;;
75542;SDS011;64129;53.508;10.476;2023-05-10T07:59:17;4.25;;;3.85;;
75542;SDS011;64129;53.508;10.476;2023-05-10T08:01:44;5.22;;;4.53;;
75542;SDS011;64129;53.508;10.476;2023-05-10T08:04:11;6.38;;;4.70;;
75542;SDS011;64129;53.508;10.476;2023-05-10T08:06:37;8.20;;;4.63;;
75542;SDS011;64129;53.508;10.476;2023-05-10T08:09:05;4.50;;;4.10;;
75542;SDS011;64129;53.508;10.476;2023-05-10T08:11:31;5.32;;;4.88;;
75542;SDS011;64129;53.508;10.476;2023-05-10T08:13:58;4.50;;;4.10;;
75542;SDS011;64129;53.508;10.476;2023-05-10T08:16:25;5.35;;;4.00;;
75542;SDS011;64129;53.508;10.476;2023-05-10T08:18:52;4.88;;;4.28;;
75542;SDS011;64129;53.508;10.476;2023-05-10T08:21:21;4.47;;;4.03;;
75542;SDS011;64129;53.508;10.476;2023-05-10T08:23:47;4.40;;;4.00;;
75542;SDS011;64129;53.508;10.476;2023-05-10T08:26:15;5.88;;;4.28;;
75542;SDS011;64129;53.508;10.476;2023-05-10T08:28:41;7.28;;;4.38;;
75542;SDS011;64129;53.508;10.476;2023-05-10T08:31:08;3.83;;;3.42;;
75542;SDS011;64129;53.508;10.476;2023-05-10T08:33:34;4.28;;;3.78;;
75542;SDS011;64129;53.508;10.476;2023-05-10T08:36:01;4.53;;;4.13;;
75542;SDS011;64129;53.508;10.476;2023-05-10T08:38:27;5.43;;;4.20;;
75542;SDS011;64129;53.508;10.476;2023-05-10T08:40:54;3.78;;;3.47;;
75542;SDS011;64129;53.508;10.476;2023-05-10T08:43:28;4.22;;;3.70;;
75542;SDS011;64129;53.508;10.476;2023-05-10T08:45:55;4.20;;;3.80;;
75542;SDS011;64129;53.508;10.476;2023-05-10T08:48:26;4.32;;;3.92;;
75542;SDS011;64129;53.508;10.476;2023-05-10T08:50:55;5.00;;;3.60;;
75542;SDS011;64129;53.508;10.476;2023-05-10T08:53:24;4.07;;;3.67;;
75542;SDS011;64129;53.508;10.476;2023-05-10T08:55:53;5.22;;;4.32;;
75542;SDS011;64129;53.508;10.476;2023-05-10T08:58:20;4.15;;;3.85;;
75542;SDS011;64129;53.508;10.476;2023-05-10T09:00:48;4.38;;;3.95;;
75542;SDS011;64129;53.508;10.476;2023-05-10T09:03:16;5.63;;;4.05;;
75542;SDS011;64129;53.508;10.476;2023-05-10T09:05:43;6.80;;;4.38;;
75542;SDS011;64129;53.508;10.476;2023-05-10T09:08:11;4.40;;;3.90;;
75542;SDS011;64129;53.508;10.476;2023-05-10T09:10:39;5.07;;;4.57;;
75542;SDS011;64129;53.508;10.476;2023-05-10T09:13:07;4.43;;;3.83;;
75542;SDS011;64129;53.508;10.476;2023-05-10T09:15:37;5.60;;;4.68;;
75542;SDS011;64129;53.508;10.476;2023-05-10T09:18:04;5.20;;;4.55;;
75542;SDS011;64129;53.508;10.476;2023-05-10T09:20:30;4.18;;;3.78;;
75542;SDS011;64129;53.508;10.476;2023-05-10T09:22:57;5.47;;;4.38;;
75542;SDS011;64129;53.508;10.476;2023-05-10T09:25:24;4.60;;;3.92;;
75542;SDS011;64129;53.508;10.476;2023-05-10T09:27:50;4.72;;;4.32;;
75542;SDS011;64129;53.508;10.476;2023-05-10T09:30:25;4.45;;;4.15;;
75542;SDS011;64129;53.508;10.476;2023-05-10T09:32:53;4.28;;;3.88;;
75542;SDS011;64129;53.508;10.476;2023-05-10T09:35:22;5.22;;;4.15;;
75542;SDS011;64129;53.508;10.476;2023-05-10T09:37:55;4.47;;;4.05;;
75542;SDS011;64129;53.508;10.476;2023-05-10T09:40:24;4.20;;;3.90;;
75542;SDS011;64129;53.508;10.476;2023-05-10T09:42:53;4.13;;;3.72;;
75542;SDS011;64129;53.508;10.476;2023-05-10T09:45:24;10.00;;;4.05;;
75542;SDS011;64129;53.508;10.476;2023-05-10T09:47:52;5.70;;;3.78;;
75542;SDS011;64129;53.508;10.476;2023-05-10T09:50:19;4.15;;;3.70;;
75542;SDS011;64129;53.508;10.476;2023-05-10T09:53:20;4.28;;;3.88;;
75542;SDS011;64129;53.508;10.476;2023-05-10T09:55:44;6.32;;;4.35;;
75542;SDS011;64129;53.508;10.476;2023-05-10T09:58:15;5.28;;;4.45;;
75542;SDS011;64129;53.508;10.476;2023-05-10T10:00:42;4.18;;;3.78;;
75542;SDS011;64129;53.508;10.476;2023-05-10T10:03:13;6.28;;;4.05;;
75542;SDS011;64129;53.508;10.476;2023-05-10T10:05:42;4.60;;;4.20;;
75542;SDS011;64129;53.508;10.476;2023-05-10T10:08:11;4.97;;;4.00;;
75542;SDS011;64129;53.508;10.476;2023-05-10T10:10:39;5.65;;;3.75;;
75542;SDS011;64129;53.508;10.476;2023-05-10T10:13:12;4.72;;;4.03;;
75542;SDS011;64129;53.508;10.476;2023-05-10T10:15:39;4.80;;;4.00;;
75542;SDS011;64129;53.508;10.476;2023-05-10T10:18:05;4.80;;;3.45;;
75542;SDS011;64129;53.508;10.476;2023-05-10T10:20:33;5.13;;;4.70;;
75542;SDS011;64129;53.508;10.476;2023-05-10T10:22:59;5.32;;;4.28;;
75542;SDS011;64129;53.508;10.476;2023-05-10T10:25:26;4.00;;;3.53;;
75542;SDS011;64129;53.508;10.476;2023-05-10T10:35:53;5.70;;;4.25;;
75542;SDS011;64129;53.508;10.476;2023-05-10T10:38:21;4.68;;;4.25;;
75542;SDS011;64129;53.508;10.476;2023-05-10T10:40:48;6.13;;;4.75;;
75542;SDS011;64129;53.508;10.476;2023-05-10T10:43:28;6.78;;;4.28;;
75542;SDS011;64129;53.508;10.476;2023-05-10T10:46:12;7.15;;;4.88;;
75542;SDS011;64129;53.508;10.476;2023-05-10T10:48:49;5.03;;;4.20;;
75542;SDS011;64129;53.508;10.476;2023-05-10T10:51:40;7.97;;;4.85;;
75542;SDS011;64129;53.508;10.476;2023-05-10T10:54:51;5.55;;;5.05;;
75542;SDS011;64129;53.508;10.476;2023-05-10T10:57:28;5.40;;;4.88;;
75542;SDS011;64129;53.508;10.476;2023-05-10T11:02:51;5.95;;;5.45;;
75542;SDS011;64129;53.508;10.476;2023-05-10T11:05:35;4.78;;;4.38;;
75542;SDS011;64129;53.508;10.476;2023-05-10T11:11:03;7.15;;;6.45;;
75542;SDS011;64129;53.508;10.476;2023-05-10T11:16:14;6.03;;;5.53;;
75542;SDS011;64129;53.508;10.476;2023-05-10T11:18:52;6.35;;;5.57;;
75542;SDS011;64129;53.508;10.476;2023-05-10T11:21:20;8.38;;;6.30;;
75542;SDS011;64129;53.508;10.476;2023-05-10T11:26:14;6.85;;;6.15;;
75542;SDS011;64129;53.508;10.476;2023-05-10T11:28:45;7.78;;;6.97;;
75542;SDS011;64129;53.508;10.476;2023-05-10T11:31:19;7.22;;;6.53;;
75542;SDS011;64129;53.508;10.476;2023-05-10T11:33:46;7.57;;;6.75;;
75542;SDS011;64129;53.508;10.476;2023-05-10T11:36:21;7.20;;;6.50;;
75542;SDS011;64129;53.508;10.476;2023-05-10T11:38:52;8.10;;;7.22;;
75542;SDS011;64129;53.508;10.476;2023-05-10T11:41:19;7.88;;;7.18;;
75542;SDS011;64129;53.508;10.476;2023-05-10T11:43:49;8.65;;;7.22;;
75542;SDS011;64129;53.508;10.476;2023-05-10T11:46:20;8.32;;;7.53;;
75542;SDS011;64129;53.508;10.476;2023-05-10T11:48:49;8.48;;;7.07;;
75542;SDS011;64129;53.508;10.476;2023-05-10T11:51:20;8.00;;;7.20;;
75542;SDS011;64129;53.508;10.476;2023-05-10T11:53:48;7.38;;;6.63;;
75542;SDS011;64129;53.508;10.476;2023-05-10T11:56:16;7.85;;;7.13;;
75542;SDS011;64129;53.508;10.476;2023-05-10T11:58:43;7.80;;;7.05;;
75542;SDS011;64129;53.508;10.476;2023-05-10T12:01:10;8.55;;;7.07;;
75542;SDS011;64129;53.508;10.476;2023-05-10T12:03:37;8.25;;;7.20;;
75542;SDS011;64129;53.508;10.476;2023-05-10T12:06:04;8.93;;;7.47;;
75542;SDS011;64129;53.508;10.476;2023-05-10T12:08:31;9.15;;;7.35;;
75542;SDS011;64129;53.508;10.476;2023-05-10T12:11:05;8.18;;;7.32;;
75542;SDS011;64129;53.508;10.476;2023-05-10T12:13:40;7.70;;;6.90;;
75542;SDS011;64129;53.508;10.476;2023-05-10T12:16:18;7.78;;;6.93;;
75542;SDS011;64129;53.508;10.476;2023-05-10T12:18:49;8.43;;;7.53;;
75542;SDS011;64129;53.508;10.476;2023-05-10T12:21:20;8.77;;;7.38;;
75542;SDS011;64129;53.508;10.476;2023-05-10T12:23:49;9.75;;;7.38;;
75542;SDS011;64129;53.508;10.476;2023-05-10T12:26:16;10.90;;;7.35;;
75542;SDS011;64129;53.508;10.476;2023-05-10T12:28:43;9.52;;;7.53;;
75542;SDS011;64129;53.508;10.476;2023-05-10T12:31:10;8.02;;;7.10;;
75542;SDS011;64129;53.508;10.476;2023-05-10T12:33:40;6.57;;;5.97;;
75542;SDS011;64129;53.508;10.476;2023-05-10T12:36:09;7.13;;;6.43;;
75542;SDS011;64129;53.508;10.476;2023-05-10T12:38:40;7.15;;;6.05;;
75542;SDS011;64129;53.508;10.476;2023-05-10T12:41:11;7.13;;;6.40;;
75542;SDS011;64129;53.508;10.476;2023-05-10T12:43:39;7.22;;;5.55;;
75542;SDS011;64129;53.508;10.476;2023-05-10T12:46:07;6.28;;;5.68;;
75542;SDS011;64129;53.508;10.476;2023-05-10T12:48:41;8.00;;;5.75;;
75542;SDS011;64129;53.508;10.476;2023-05-10T12:53:38;8.18;;;6.15;;
75542;SDS011;64129;53.508;10.476;2023-05-10T12:56:06;7.15;;;6.28;;
75542;SDS011;64129;53.508;10.476;2023-05-10T12:58:33;7.35;;;6.65;;
75542;SDS011;64129;53.508;10.476;2023-05-10T13:01:01;8.63;;;7.68;;
75542;SDS011;64129;53.508;10.476;2023-05-10T13:03:28;7.28;;;6.55;;
75542;SDS011;64129;53.508;10.476;2023-05-10T13:05:55;8.48;;;7.57;;
75542;SDS011;64129;53.508;10.476;2023-05-10T13:08:21;7.78;;;6.75;;
75542;SDS011;64129;53.508;10.476;2023-05-10T13:10:48;9.75;;;8.85;;
75542;SDS011;64129;53.508;10.476;2023-05-10T13:13:15;8.88;;;7.97;;
75542;SDS011;64129;53.508;10.476;2023-05-10T13:15:41;9.23;;;7.43;;
75542;SDS011;64129;53.508;10.476;2023-05-10T13:18:08;11.75;;;8.52;;
75542;SDS011;64129;53.508;10.476;2023-05-10T13:20:35;8.88;;;7.90;;
75542;SDS011;64129;53.508;10.476;2023-05-10T13:23:01;8.65;;;7.57;;
75542;SDS011;64129;53.508;10.476;2023-05-10T13:25:28;8.52;;;7.72;;
75542;SDS011;64129;53.508;10.476;2023-05-10T13:27:55;8.93;;;7.97;;
75542;SDS011;64129;53.508;10.476;2023-05-10T13:30:22;8.32;;;7.53;;
75542;SDS011;64129;53.508;10.476;2023-05-10T13:32:50;7.38;;;6.25;;
75542;SDS011;64129;53.508;10.476;2023-05-10T13:35:16;8.05;;;7.35;;
75542;SDS011;64129;53.508;10.476;2023-05-10T13:37:43;8.00;;;7.30;;
75542;SDS011;64129;53.508;10.476;2023-05-10T13:40:09;7.40;;;6.70;;
75542;SDS011;64129;53.508;10.476;2023-05-10T13:42:36;7.93;;;7.22;;
75542;SDS011;64129;53.508;10.476;2023-05-10T13:45:03;8.52;;;7.03;;
75542;SDS011;64129;53.508;10.476;2023-05-10T13:47:30;9.10;;;7.57;;
75542;SDS011;64129;53.508;10.476;2023-05-10T13:49:57;7.30;;;6.60;;
75542;SDS011;64129;53.508;10.476;2023-05-10T13:52:24;7.13;;;6.43;;
75542;SDS011;64129;53.508;10.476;2023-05-10T13:54:51;5.75;;;5.15;;
75542;SDS011;64129;53.508;10.476;2023-05-10T13:57:21;6.47;;;5.88;;
75542;SDS011;64129;53.508;10.476;2023-05-10T13:59:48;5.53;;;5.03;;
75542;SDS011;64129;53.508;10.476;2023-05-10T14:02:14;5.30;;;4.80;;
75542;SDS011;64129;53.508;10.476;2023-05-10T14:04:41;4.57;;;4.18;;
75542;SDS011;64129;53.508;10.476;2023-05-10T14:07:07;5.18;;;4.68;;
75542;SDS011;64129;53.508;10.476;2023-05-10T14:09:34;5.20;;;4.70;;
75542;SDS011;64129;53.508;10.476;2023-05-10T14:12:00;4.95;;;4.45;;
75542;SDS011;64129;53.508;10.476;2023-05-10T14:14:28;4.38;;;3.97;;
75542;SDS011;64129;53.508;10.476;2023-05-10T14:16:55;4.35;;;3.95;;
75542;SDS011;64129;53.508;10.476;2023-05-10T14:19:22;5.35;;;4.43;;
75542;SDS011;64129;53.508;10.476;2023-05-10T14:21:48;4.40;;;3.90;;
75542;SDS011;64129;53.508;10.476;2023-05-10T14:24:15;5.53;;;5.03;;
75542;SDS011;64129;53.508;10.476;2023-05-10T14:26:41;4.82;;;4.40;;
75542;SDS011;64129;53.508;10.476;2023-05-10T14:29:08;4.50;;;4.10;;
75542;SDS011;64129;53.508;10.476;2023-05-10T14:31:35;5.88;;;4.60;;
75542;SDS011;64129;53.508;10.476;2023-05-10T14:34:02;4.70;;;3.97;;
75542;SDS011;64129;53.508;10.476;2023-05-10T14:36:29;4.30;;;3.90;;
75542;SDS011;64129;53.508;10.476;2023-05-10T14:38:55;4.88;;;4.40;;
75542;SDS011;64129;53.508;10.476;2023-05-10T14:41:22;5.43;;;4.30;;
75542;SDS011;64129;53.508;10.476;2023-05-10T14:43:49;4.15;;;3.47;;
75542;SDS011;64129;53.508;10.476;2023-05-10T14:46:15;4.70;;;4.28;;
75542;SDS011;64129;53.508;10.476;2023-05-10T14:48:42;4.57;;;4.18;;
75542;SDS011;64129;53.508;10.476;2023-05-10T14:51:08;5.45;;;4.03;;
75542;SDS011;64129;53.508;10.476;2023-05-10T14:53:35;3.97;;;3.58;;
75542;SDS011;64129;53.508;10.476;2023-05-10T14:56:01;3.63;;;3.33;;
75542;SDS011;64129;53.508;10.476;2023-05-10T14:58:29;4.75;;;3.55;;
75542;SDS011;64129;53.508;10.476;2023-05-10T15:00:58;3.55;;;3.25;;
75542;SDS011;64129;53.508;10.476;2023-05-10T15:03:25;4.10;;;3.80;;
75542;SDS011;64129;53.508;10.476;2023-05-10T15:05:51;3.80;;;3.40;;
75542;SDS011;64129;53.508;10.476;2023-05-10T15:08:19;3.78;;;3.42;;
75542;SDS011;64129;53.508;10.476;2023-05-10T15:10:45;3.55;;;3.20;;
75542;SDS011;64129;53.508;10.476;2023-05-10T15:13:12;3.33;;;3.03;;
75542;SDS011;64129;53.508;10.476;2023-05-10T15:15:39;3.95;;;3.53;;
75542;SDS011;64129;53.508;10.476;2023-05-10T15:18:05;3.85;;;3.53;;